sensor_id;sensor_type;location;lat;lon;timestamp;P1;durP1;ratioP1;P2;durP2;ratioP2
30127;SDS011;16942;53.196;6.592;2022-09-28T00:02:04;6.53;;;4.40;;
30127;SDS011;16942;53.196;6.592;2022-09-28T00:04:31;11.60;;;4.33;;
30127;SDS011;16942;53.196;6.592;2022-09-28T00:06:59;7.37;;;4.53;;
30127;SDS011;16942;53.196;6.592;2022-09-28T00:09:26;8.00;;;4.57;;
30127;SDS011;16942;53.196;6.592;2022-09-28T00:11:52;6.13;;;4.83;;
30127;SDS011;16942;53.196;6.592;2022-09-28T00:14:18;11.17;;;5.20;;
30127;SDS011;16942;53.196;6.592;2022-09-28T00:16:45;10.47;;;5.30;;
30127;SDS011;16942;53.196;6.592;2022-09-28T00:19:12;5.60;;;4.43;;
30127;SDS011;16942;53.196;6.592;2022-09-28T00:21:39;11.10;;;6.27;;
30127;SDS011;16942;53.196;6.592;2022-09-28T00:24:06;9.90;;;5.73;;
30127;SDS011;16942;53.196;6.592;2022-09-28T00:29:16;7.33;;;5.97;;
30127;SDS011;16942;53.196;6.592;2022-09-28T00:31:42;9.00;;;5.73;;
30127;SDS011;16942;53.196;6.592;2022-09-28T00:34:08;8.43;;;5.93;;
30127;SDS011;16942;53.196;6.592;2022-09-28T00:36:34;11.37;;;6.30;;
30127;SDS011;16942;53.196;6.592;2022-09-28T00:39:04;10.00;;;5.97;;
30127;SDS011;16942;53.196;6.592;2022-09-28T00:41:31;7.83;;;5.27;;
30127;SDS011;16942;53.196;6.592;2022-09-28T00:47:06;7.57;;;5.50;;
30127;SDS011;16942;53.196;6.592;2022-09-28T00:49:53;14.77;;;5.60;;
30127;SDS011;16942;53.196;6.592;2022-09-28T00:54:51;7.77;;;5.17;;
30127;SDS011;16942;53.196;6.592;2022-09-28T00:57:18;9.93;;;5.20;;
30127;SDS011;16942;53.196;6.592;2022-09-28T00:59:45;9.13;;;5.23;;
30127;SDS011;16942;53.196;6.592;2022-09-28T01:02:11;9.73;;;5.67;;
30127;SDS011;16942;53.196;6.592;2022-09-28T01:04:37;7.40;;;5.10;;
30127;SDS011;16942;53.196;6.592;2022-09-28T01:24:42;9.40;;;6.47;;
30127;SDS011;16942;53.196;6.592;2022-09-28T01:29:39;7.07;;;5.17;;
30127;SDS011;16942;53.196;6.592;2022-09-28T01:32:14;9.03;;;5.07;;
30127;SDS011;16942;53.196;6.592;2022-09-28T01:34:44;8.93;;;5.53;;
30127;SDS011;16942;53.196;6.592;2022-09-28T01:37:12;5.87;;;4.17;;
30127;SDS011;16942;53.196;6.592;2022-09-28T01:39:39;6.40;;;4.63;;
30127;SDS011;16942;53.196;6.592;2022-09-28T01:42:09;5.63;;;4.53;;
30127;SDS011;16942;53.196;6.592;2022-09-28T01:44:37;6.07;;;4.07;;
30127;SDS011;16942;53.196;6.592;2022-09-28T01:47:06;9.40;;;4.07;;
30127;SDS011;16942;53.196;6.592;2022-09-28T01:49:34;5.20;;;3.93;;
30127;SDS011;16942;53.196;6.592;2022-09-28T02:09:04;4.87;;;3.70;;
30127;SDS011;16942;53.196;6.592;2022-09-28T02:11:33;5.47;;;3.90;;
30127;SDS011;16942;53.196;6.592;2022-09-28T02:14:05;6.03;;;4.57;;
30127;SDS011;16942;53.196;6.592;2022-09-28T02:16:39;6.17;;;5.00;;
30127;SDS011;16942;53.196;6.592;2022-09-28T02:19:05;7.87;;;5.07;;
30127;SDS011;16942;53.196;6.592;2022-09-28T02:21:37;9.00;;;5.90;;
30127;SDS011;16942;53.196;6.592;2022-09-28T02:24:16;11.23;;;5.50;;
30127;SDS011;16942;53.196;6.592;2022-09-28T02:26:43;12.70;;;6.00;;
30127;SDS011;16942;53.196;6.592;2022-09-28T02:29:10;10.57;;;6.63;;
30127;SDS011;16942;53.196;6.592;2022-09-28T02:31:36;8.53;;;5.90;;
30127;SDS011;16942;53.196;6.592;2022-09-28T02:34:03;15.63;;;6.17;;
30127;SDS011;16942;53.196;6.592;2022-09-28T02:36:29;8.53;;;5.83;;
30127;SDS011;16942;53.196;6.592;2022-09-28T02:38:55;7.20;;;5.17;;
30127;SDS011;16942;53.196;6.592;2022-09-28T02:44:02;8.17;;;5.43;;
30127;SDS011;16942;53.196;6.592;2022-09-28T02:46:41;11.63;;;7.07;;
30127;SDS011;16942;53.196;6.592;2022-09-28T02:57:26;13.90;;;8.20;;
30127;SDS011;16942;53.196;6.592;2022-09-28T03:05:18;16.53;;;8.67;;
30127;SDS011;16942;53.196;6.592;2022-09-28T03:07:48;12.57;;;8.33;;
30127;SDS011;16942;53.196;6.592;2022-09-28T03:10:36;12.80;;;8.33;;
30127;SDS011;16942;53.196;6.592;2022-09-28T03:13:04;16.73;;;8.60;;
30127;SDS011;16942;53.196;6.592;2022-09-28T03:15:32;14.47;;;8.33;;
30127;SDS011;16942;53.196;6.592;2022-09-28T03:17:58;14.00;;;8.50;;
30127;SDS011;16942;53.196;6.592;2022-09-28T03:20:25;13.10;;;8.13;;
30127;SDS011;16942;53.196;6.592;2022-09-28T03:22:51;13.50;;;8.50;;
30127;SDS011;16942;53.196;6.592;2022-09-28T03:25:17;12.67;;;7.70;;
30127;SDS011;16942;53.196;6.592;2022-09-28T03:27:44;11.17;;;6.73;;
30127;SDS011;16942;53.196;6.592;2022-09-28T03:30:10;11.60;;;6.80;;
30127;SDS011;16942;53.196;6.592;2022-09-28T03:32:36;26.10;;;7.37;;
30127;SDS011;16942;53.196;6.592;2022-09-28T03:35:02;8.53;;;6.37;;
30127;SDS011;16942;53.196;6.592;2022-09-28T03:37:29;7.87;;;5.70;;
30127;SDS011;16942;53.196;6.592;2022-09-28T03:39:55;10.27;;;6.47;;
30127;SDS011;16942;53.196;6.592;2022-09-28T03:42:21;88.37;;;8.73;;
30127;SDS011;16942;53.196;6.592;2022-09-28T03:44:47;14.73;;;6.87;;
30127;SDS011;16942;53.196;6.592;2022-09-28T03:47:13;13.73;;;6.60;;
30127;SDS011;16942;53.196;6.592;2022-09-28T03:49:41;18.60;;;6.23;;
30127;SDS011;16942;53.196;6.592;2022-09-28T03:52:08;22.10;;;7.03;;
30127;SDS011;16942;53.196;6.592;2022-09-28T03:54:34;50.87;;;7.47;;
30127;SDS011;16942;53.196;6.592;2022-09-28T03:57:00;21.00;;;6.47;;
30127;SDS011;16942;53.196;6.592;2022-09-28T03:59:26;7.20;;;5.83;;
30127;SDS011;16942;53.196;6.592;2022-09-28T04:01:52;8.67;;;5.97;;
30127;SDS011;16942;53.196;6.592;2022-09-28T04:04:18;17.80;;;6.47;;
30127;SDS011;16942;53.196;6.592;2022-09-28T04:06:44;21.40;;;6.67;;
30127;SDS011;16942;53.196;6.592;2022-09-28T04:09:10;160.53;;;10.57;;
30127;SDS011;16942;53.196;6.592;2022-09-28T04:11:36;152.67;;;11.83;;
30127;SDS011;16942;53.196;6.592;2022-09-28T04:14:02;6.83;;;5.70;;
30127;SDS011;16942;53.196;6.592;2022-09-28T04:16:28;8.60;;;5.00;;
30127;SDS011;16942;53.196;6.592;2022-09-28T04:18:56;31.57;;;7.43;;
30127;SDS011;16942;53.196;6.592;2022-09-28T04:21:22;59.07;;;7.90;;
30127;SDS011;16942;53.196;6.592;2022-09-28T04:23:48;98.87;;;8.77;;
30127;SDS011;16942;53.196;6.592;2022-09-28T04:26:16;12.80;;;7.20;;
30127;SDS011;16942;53.196;6.592;2022-09-28T04:28:42;16.73;;;6.73;;
30127;SDS011;16942;53.196;6.592;2022-09-28T04:31:27;7.20;;;5.60;;
30127;SDS011;16942;53.196;6.592;2022-09-28T04:33:55;9.20;;;5.93;;
30127;SDS011;16942;53.196;6.592;2022-09-28T04:36:21;9.80;;;6.10;;
30127;SDS011;16942;53.196;6.592;2022-09-28T04:38:49;8.40;;;6.30;;
30127;SDS011;16942;53.196;6.592;2022-09-28T04:41:15;7.80;;;6.10;;
30127;SDS011;16942;53.196;6.592;2022-09-28T04:43:41;7.90;;;6.10;;
30127;SDS011;16942;53.196;6.592;2022-09-28T04:46:08;11.00;;;7.27;;
30127;SDS011;16942;53.196;6.592;2022-09-28T04:48:36;17.13;;;6.67;;
30127;SDS011;16942;53.196;6.592;2022-09-28T04:51:02;10.93;;;7.13;;
30127;SDS011;16942;53.196;6.592;2022-09-28T04:53:28;9.43;;;6.87;;
30127;SDS011;16942;53.196;6.592;2022-09-28T04:58:20;17.77;;;6.70;;
30127;SDS011;16942;53.196;6.592;2022-09-28T05:00:47;11.23;;;6.73;;
30127;SDS011;16942;53.196;6.592;2022-09-28T05:03:15;9.87;;;6.77;;
30127;SDS011;16942;53.196;6.592;2022-09-28T05:05:45;8.63;;;6.30;;
30127;SDS011;16942;53.196;6.592;2022-09-28T05:08:12;9.27;;;6.47;;
30127;SDS011;16942;53.196;6.592;2022-09-28T05:10:38;18.40;;;7.13;;
30127;SDS011;16942;53.196;6.592;2022-09-28T05:13:05;10.53;;;7.43;;
30127;SDS011;16942;53.196;6.592;2022-09-28T05:15:33;11.20;;;7.53;;
30127;SDS011;16942;53.196;6.592;2022-09-28T05:17:59;12.20;;;7.73;;
30127;SDS011;16942;53.196;6.592;2022-09-28T05:20:25;15.17;;;7.50;;
30127;SDS011;16942;53.196;6.592;2022-09-28T05:22:51;14.43;;;7.67;;
30127;SDS011;16942;53.196;6.592;2022-09-28T05:25:17;10.27;;;7.57;;
30127;SDS011;16942;53.196;6.592;2022-09-28T05:27:43;13.67;;;8.23;;
30127;SDS011;16942;53.196;6.592;2022-09-28T05:30:09;10.77;;;7.70;;
30127;SDS011;16942;53.196;6.592;2022-09-28T05:32:39;11.10;;;7.23;;
30127;SDS011;16942;53.196;6.592;2022-09-28T05:35:05;10.97;;;7.37;;
30127;SDS011;16942;53.196;6.592;2022-09-28T05:37:32;10.73;;;7.17;;
30127;SDS011;16942;53.196;6.592;2022-09-28T05:39:58;10.47;;;7.70;;
30127;SDS011;16942;53.196;6.592;2022-09-28T05:42:24;14.93;;;8.97;;
30127;SDS011;16942;53.196;6.592;2022-09-28T05:44:50;11.17;;;8.03;;
30127;SDS011;16942;53.196;6.592;2022-09-28T05:47:17;12.27;;;7.23;;
30127;SDS011;16942;53.196;6.592;2022-09-28T05:49:43;14.27;;;8.17;;
30127;SDS011;16942;53.196;6.592;2022-09-28T05:52:09;11.67;;;7.00;;
30127;SDS011;16942;53.196;6.592;2022-09-28T05:54:35;10.37;;;7.53;;
30127;SDS011;16942;53.196;6.592;2022-09-28T05:57:01;12.10;;;7.50;;
30127;SDS011;16942;53.196;6.592;2022-09-28T05:59:27;9.57;;;6.97;;
30127;SDS011;16942;53.196;6.592;2022-09-28T06:01:54;27.30;;;7.40;;
30127;SDS011;16942;53.196;6.592;2022-09-28T06:04:20;17.83;;;7.13;;
30127;SDS011;16942;53.196;6.592;2022-09-28T06:06:46;13.47;;;6.90;;
30127;SDS011;16942;53.196;6.592;2022-09-28T06:09:12;11.93;;;6.83;;
30127;SDS011;16942;53.196;6.592;2022-09-28T06:11:38;11.03;;;7.57;;
30127;SDS011;16942;53.196;6.592;2022-09-28T06:14:04;10.60;;;7.03;;
30127;SDS011;16942;53.196;6.592;2022-09-28T06:16:30;10.40;;;7.17;;
30127;SDS011;16942;53.196;6.592;2022-09-28T06:18:56;10.73;;;6.73;;
30127;SDS011;16942;53.196;6.592;2022-09-28T06:21:22;10.63;;;7.10;;
30127;SDS011;16942;53.196;6.592;2022-09-28T06:23:48;11.37;;;7.77;;
30127;SDS011;16942;53.196;6.592;2022-09-28T06:26:15;13.13;;;7.87;;
30127;SDS011;16942;53.196;6.592;2022-09-28T06:28:41;14.07;;;8.13;;
30127;SDS011;16942;53.196;6.592;2022-09-28T06:31:07;11.80;;;7.87;;
30127;SDS011;16942;53.196;6.592;2022-09-28T06:33:33;14.90;;;7.63;;
30127;SDS011;16942;53.196;6.592;2022-09-28T06:35:59;11.67;;;8.00;;
30127;SDS011;16942;53.196;6.592;2022-09-28T06:38:26;11.50;;;7.43;;
30127;SDS011;16942;53.196;6.592;2022-09-28T06:40:52;11.17;;;7.37;;
30127;SDS011;16942;53.196;6.592;2022-09-28T06:43:18;13.37;;;7.50;;
30127;SDS011;16942;53.196;6.592;2022-09-28T06:45:49;9.40;;;7.00;;
30127;SDS011;16942;53.196;6.592;2022-09-28T06:48:15;10.90;;;7.73;;
30127;SDS011;16942;53.196;6.592;2022-09-28T06:50:41;11.87;;;7.77;;
30127;SDS011;16942;53.196;6.592;2022-09-28T06:53:09;12.80;;;8.87;;
30127;SDS011;16942;53.196;6.592;2022-09-28T06:55:45;13.57;;;8.90;;
30127;SDS011;16942;53.196;6.592;2022-09-28T06:58:18;13.03;;;8.77;;
30127;SDS011;16942;53.196;6.592;2022-09-28T07:00:45;12.93;;;8.60;;
30127;SDS011;16942;53.196;6.592;2022-09-28T07:03:12;11.67;;;7.97;;
30127;SDS011;16942;53.196;6.592;2022-09-28T07:05:40;13.87;;;9.73;;
30127;SDS011;16942;53.196;6.592;2022-09-28T07:08:06;12.20;;;8.90;;
30127;SDS011;16942;53.196;6.592;2022-09-28T07:10:33;12.07;;;7.67;;
30127;SDS011;16942;53.196;6.592;2022-09-28T07:13:00;19.73;;;8.90;;
30127;SDS011;16942;53.196;6.592;2022-09-28T07:15:29;12.43;;;7.90;;
30127;SDS011;16942;53.196;6.592;2022-09-28T07:17:56;10.30;;;7.40;;
30127;SDS011;16942;53.196;6.592;2022-09-28T07:20:22;9.90;;;7.53;;
30127;SDS011;16942;53.196;6.592;2022-09-28T07:22:55;11.80;;;8.23;;
30127;SDS011;16942;53.196;6.592;2022-09-28T07:25:22;12.03;;;7.60;;
30127;SDS011;16942;53.196;6.592;2022-09-28T07:27:49;12.40;;;7.13;;
30127;SDS011;16942;53.196;6.592;2022-09-28T07:30:15;10.57;;;7.23;;
30127;SDS011;16942;53.196;6.592;2022-09-28T07:32:44;14.90;;;7.77;;
30127;SDS011;16942;53.196;6.592;2022-09-28T07:35:10;12.30;;;7.03;;
30127;SDS011;16942;53.196;6.592;2022-09-28T07:37:36;11.13;;;7.80;;
30127;SDS011;16942;53.196;6.592;2022-09-28T07:40:03;10.43;;;7.20;;
30127;SDS011;16942;53.196;6.592;2022-09-28T07:42:47;12.33;;;7.53;;
30127;SDS011;16942;53.196;6.592;2022-09-28T07:45:14;12.90;;;7.67;;
30127;SDS011;16942;53.196;6.592;2022-09-28T07:47:40;9.70;;;7.20;;
30127;SDS011;16942;53.196;6.592;2022-09-28T07:50:06;10.40;;;6.83;;
30127;SDS011;16942;53.196;6.592;2022-09-28T07:52:33;12.17;;;6.90;;
30127;SDS011;16942;53.196;6.592;2022-09-28T07:55:00;10.47;;;7.03;;
30127;SDS011;16942;53.196;6.592;2022-09-28T07:57:27;9.93;;;7.20;;
30127;SDS011;16942;53.196;6.592;2022-09-28T07:59:53;15.27;;;7.37;;
30127;SDS011;16942;53.196;6.592;2022-09-28T08:02:19;8.83;;;7.10;;
30127;SDS011;16942;53.196;6.592;2022-09-28T08:04:46;9.93;;;7.53;;
30127;SDS011;16942;53.196;6.592;2022-09-28T08:07:13;10.57;;;7.60;;
30127;SDS011;16942;53.196;6.592;2022-09-28T08:09:43;10.17;;;6.97;;
30127;SDS011;16942;53.196;6.592;2022-09-28T08:12:09;9.10;;;6.53;;
30127;SDS011;16942;53.196;6.592;2022-09-28T08:14:36;10.40;;;6.93;;
30127;SDS011;16942;53.196;6.592;2022-09-28T08:17:02;12.77;;;7.53;;
30127;SDS011;16942;53.196;6.592;2022-09-28T08:19:29;10.47;;;7.30;;
30127;SDS011;16942;53.196;6.592;2022-09-28T08:22:14;9.57;;;7.37;;
30127;SDS011;16942;53.196;6.592;2022-09-28T08:24:41;11.10;;;7.07;;
30127;SDS011;16942;53.196;6.592;2022-09-28T08:27:07;8.67;;;6.93;;
30127;SDS011;16942;53.196;6.592;2022-09-28T08:29:34;8.30;;;6.23;;
30127;SDS011;16942;53.196;6.592;2022-09-28T08:32:00;7.40;;;5.83;;
30127;SDS011;16942;53.196;6.592;2022-09-28T08:34:26;11.13;;;7.37;;
30127;SDS011;16942;53.196;6.592;2022-09-28T08:36:55;9.03;;;6.20;;
30127;SDS011;16942;53.196;6.592;2022-09-28T08:39:21;9.90;;;6.60;;
30127;SDS011;16942;53.196;6.592;2022-09-28T08:44:14;9.17;;;6.03;;
30127;SDS011;16942;53.196;6.592;2022-09-28T08:46:48;10.57;;;7.37;;
30127;SDS011;16942;53.196;6.592;2022-09-28T08:49:17;10.40;;;7.37;;
30127;SDS011;16942;53.196;6.592;2022-09-28T08:51:50;8.80;;;6.63;;
30127;SDS011;16942;53.196;6.592;2022-09-28T08:54:35;10.63;;;6.80;;
30127;SDS011;16942;53.196;6.592;2022-09-28T08:59:51;8.17;;;6.50;;
30127;SDS011;16942;53.196;6.592;2022-09-28T09:02:22;9.20;;;6.90;;
30127;SDS011;16942;53.196;6.592;2022-09-28T09:04:50;11.83;;;7.73;;
30127;SDS011;16942;53.196;6.592;2022-09-28T09:18:11;10.03;;;6.43;;
30127;SDS011;16942;53.196;6.592;2022-09-28T09:20:50;10.37;;;6.00;;
30127;SDS011;16942;53.196;6.592;2022-09-28T09:23:18;10.77;;;7.17;;
30127;SDS011;16942;53.196;6.592;2022-09-28T09:25:52;7.80;;;6.10;;
30127;SDS011;16942;53.196;6.592;2022-09-28T09:33:37;8.03;;;6.30;;
30127;SDS011;16942;53.196;6.592;2022-09-28T09:38:54;11.43;;;6.30;;
30127;SDS011;16942;53.196;6.592;2022-09-28T09:46:45;8.23;;;5.77;;
30127;SDS011;16942;53.196;6.592;2022-09-28T09:49:16;9.53;;;5.63;;
30127;SDS011;16942;53.196;6.592;2022-09-28T09:54:27;7.83;;;4.60;;
30127;SDS011;16942;53.196;6.592;2022-09-28T09:56:58;4.77;;;3.30;;
30127;SDS011;16942;53.196;6.592;2022-09-28T09:59:31;7.40;;;3.63;;
30127;SDS011;16942;53.196;6.592;2022-09-28T10:02:02;5.00;;;3.40;;
30127;SDS011;16942;53.196;6.592;2022-09-28T10:04:35;4.10;;;3.50;;
30127;SDS011;16942;53.196;6.592;2022-09-28T10:07:03;6.40;;;3.47;;
30127;SDS011;16942;53.196;6.592;2022-09-28T10:09:31;6.00;;;3.50;;
30127;SDS011;16942;53.196;6.592;2022-09-28T10:11:59;4.63;;;3.23;;
30127;SDS011;16942;53.196;6.592;2022-09-28T10:14:25;5.20;;;2.70;;
30127;SDS011;16942;53.196;6.592;2022-09-28T10:16:52;3.00;;;2.47;;
30127;SDS011;16942;53.196;6.592;2022-09-28T10:19:20;3.47;;;2.50;;
30127;SDS011;16942;53.196;6.592;2022-09-28T10:21:49;3.77;;;2.37;;
30127;SDS011;16942;53.196;6.592;2022-09-28T10:24:21;4.87;;;2.40;;
30127;SDS011;16942;53.196;6.592;2022-09-28T10:26:52;2.87;;;2.63;;
30127;SDS011;16942;53.196;6.592;2022-09-28T10:29:20;1.70;;;1.53;;
30127;SDS011;16942;53.196;6.592;2022-09-28T10:31:50;2.20;;;1.40;;
30127;SDS011;16942;53.196;6.592;2022-09-28T10:34:17;1.90;;;1.27;;
30127;SDS011;16942;53.196;6.592;2022-09-28T10:39:23;1.53;;;1.20;;
30127;SDS011;16942;53.196;6.592;2022-09-28T10:41:50;3.10;;;1.40;;
30127;SDS011;16942;53.196;6.592;2022-09-28T10:44:16;2.10;;;1.40;;
30127;SDS011;16942;53.196;6.592;2022-09-28T10:46:43;1.43;;;1.33;;
30127;SDS011;16942;53.196;6.592;2022-09-28T10:49:16;3.03;;;1.87;;
30127;SDS011;16942;53.196;6.592;2022-09-28T10:54:13;1.47;;;0.87;;
30127;SDS011;16942;53.196;6.592;2022-09-28T10:56:39;1.87;;;0.97;;
30127;SDS011;16942;53.196;6.592;2022-09-28T10:59:21;2.33;;;0.83;;
30127;SDS011;16942;53.196;6.592;2022-09-28T11:01:51;3.73;;;0.70;;
30127;SDS011;16942;53.196;6.592;2022-09-28T11:04:21;0.83;;;0.60;;
30127;SDS011;16942;53.196;6.592;2022-09-28T11:06:49;2.47;;;0.90;;
30127;SDS011;16942;53.196;6.592;2022-09-28T11:11:53;0.97;;;0.60;;
30127;SDS011;16942;53.196;6.592;2022-09-28T11:17:15;1.10;;;0.47;;
30127;SDS011;16942;53.196;6.592;2022-09-28T11:19:41;1.80;;;0.50;;
30127;SDS011;16942;53.196;6.592;2022-09-28T11:22:21;0.87;;;0.57;;
30127;SDS011;16942;53.196;6.592;2022-09-28T11:24:48;1.53;;;0.70;;
30127;SDS011;16942;53.196;6.592;2022-09-28T11:27:24;2.00;;;0.50;;
30127;SDS011;16942;53.196;6.592;2022-09-28T11:29:55;1.33;;;0.53;;
30127;SDS011;16942;53.196;6.592;2022-09-28T11:32:23;1.63;;;0.60;;
30127;SDS011;16942;53.196;6.592;2022-09-28T11:34:49;2.20;;;0.50;;
30127;SDS011;16942;53.196;6.592;2022-09-28T11:42:41;0.47;;;0.47;;
30127;SDS011;16942;53.196;6.592;2022-09-28T11:47:36;2.10;;;1.60;;
30127;SDS011;16942;53.196;6.592;2022-09-28T11:50:18;0.63;;;0.57;;
30127;SDS011;16942;53.196;6.592;2022-09-28T11:52:51;1.13;;;0.40;;
30127;SDS011;16942;53.196;6.592;2022-09-28T11:57:59;0.87;;;0.50;;
30127;SDS011;16942;53.196;6.592;2022-09-28T12:00:26;1.43;;;0.53;;
30127;SDS011;16942;53.196;6.592;2022-09-28T12:05:23;1.70;;;0.53;;
30127;SDS011;16942;53.196;6.592;2022-09-28T12:07:58;2.23;;;0.50;;
30127;SDS011;16942;53.196;6.592;2022-09-28T12:13:08;0.60;;;0.50;;
30127;SDS011;16942;53.196;6.592;2022-09-28T12:18:18;0.70;;;0.60;;
30127;SDS011;16942;53.196;6.592;2022-09-28T12:20:46;1.10;;;1.00;;
30127;SDS011;16942;53.196;6.592;2022-09-28T12:25:41;3.40;;;1.20;;
30127;SDS011;16942;53.196;6.592;2022-09-28T12:28:17;1.33;;;1.07;;
30127;SDS011;16942;53.196;6.592;2022-09-28T12:30:44;2.17;;;0.50;;
30127;SDS011;16942;53.196;6.592;2022-09-28T12:33:12;2.30;;;0.60;;
30127;SDS011;16942;53.196;6.592;2022-09-28T12:38:27;0.80;;;0.40;;
30127;SDS011;16942;53.196;6.592;2022-09-28T12:40:57;3.00;;;0.60;;
30127;SDS011;16942;53.196;6.592;2022-09-28T12:43:32;1.77;;;0.53;;
30127;SDS011;16942;53.196;6.592;2022-09-28T12:46:12;1.47;;;0.60;;
30127;SDS011;16942;53.196;6.592;2022-09-28T12:51:26;1.13;;;0.50;;
30127;SDS011;16942;53.196;6.592;2022-09-28T12:53:59;0.70;;;0.60;;
30127;SDS011;16942;53.196;6.592;2022-09-28T13:06:35;0.60;;;0.60;;
30127;SDS011;16942;53.196;6.592;2022-09-28T13:11:31;3.90;;;0.57;;
30127;SDS011;16942;53.196;6.592;2022-09-28T13:14:21;0.40;;;0.30;;
30127;SDS011;16942;53.196;6.592;2022-09-28T13:16:49;1.60;;;0.40;;
30127;SDS011;16942;53.196;6.592;2022-09-28T13:19:34;0.70;;;0.40;;
30127;SDS011;16942;53.196;6.592;2022-09-28T13:24:34;0.20;;;0.20;;
30127;SDS011;16942;53.196;6.592;2022-09-28T13:27:03;0.50;;;0.40;;
30127;SDS011;16942;53.196;6.592;2022-09-28T13:29:31;0.67;;;0.40;;
30127;SDS011;16942;53.196;6.592;2022-09-28T13:31:58;0.90;;;0.40;;
30127;SDS011;16942;53.196;6.592;2022-09-28T13:34:27;0.30;;;0.30;;
30127;SDS011;16942;53.196;6.592;2022-09-28T13:39:37;0.60;;;0.30;;
30127;SDS011;16942;53.196;6.592;2022-09-28T13:42:24;0.53;;;0.30;;
30127;SDS011;16942;53.196;6.592;2022-09-28T14:02:57;0.60;;;0.60;;
30127;SDS011;16942;53.196;6.592;2022-09-28T14:08:26;1.95;;;0.60;;
30127;SDS011;16942;53.196;6.592;2022-09-28T14:10:53;0.73;;;0.60;;
30127;SDS011;16942;53.196;6.592;2022-09-28T14:18:44;2.47;;;0.50;;
30127;SDS011;16942;53.196;6.592;2022-09-28T14:29:00;0.60;;;0.60;;
30127;SDS011;16942;53.196;6.592;2022-09-28T14:31:31;0.43;;;0.40;;
30127;SDS011;16942;53.196;6.592;2022-09-28T14:34:00;1.67;;;0.63;;
30127;SDS011;16942;53.196;6.592;2022-09-28T14:36:28;2.58;;;0.70;;
30127;SDS011;16942;53.196;6.592;2022-09-28T14:39:20;1.17;;;0.50;;
30127;SDS011;16942;53.196;6.592;2022-09-28T14:42:24;0.77;;;0.63;;
30127;SDS011;16942;53.196;6.592;2022-09-28T14:50:27;1.80;;;1.50;;
30127;SDS011;16942;53.196;6.592;2022-09-28T14:52:54;0.80;;;0.40;;
30127;SDS011;16942;53.196;6.592;2022-09-28T14:55:30;0.52;;;0.50;;
30127;SDS011;16942;53.196;6.592;2022-09-28T14:57:57;0.65;;;0.65;;
30127;SDS011;16942;53.196;6.592;2022-09-28T15:00:24;1.42;;;0.38;;
30127;SDS011;16942;53.196;6.592;2022-09-28T15:02:53;2.05;;;0.40;;
30127;SDS011;16942;53.196;6.592;2022-09-28T15:05:31;0.47;;;0.40;;
30127;SDS011;16942;53.196;6.592;2022-09-28T15:07:59;1.33;;;0.30;;
30127;SDS011;16942;53.196;6.592;2022-09-28T15:12:55;2.00;;;0.43;;
30127;SDS011;16942;53.196;6.592;2022-09-28T15:15:40;2.25;;;0.30;;
30127;SDS011;16942;53.196;6.592;2022-09-28T15:18:19;0.60;;;0.40;;
30127;SDS011;16942;53.196;6.592;2022-09-28T15:20:51;1.27;;;0.43;;
30127;SDS011;16942;53.196;6.592;2022-09-28T15:25:50;1.77;;;0.30;;
30127;SDS011;16942;53.196;6.592;2022-09-28T15:28:18;1.27;;;0.30;;
30127;SDS011;16942;53.196;6.592;2022-09-28T15:30:46;0.40;;;0.40;;
30127;SDS011;16942;53.196;6.592;2022-09-28T15:33:25;2.55;;;0.50;;
30127;SDS011;16942;53.196;6.592;2022-09-28T15:36:15;4.20;;;1.08;;
30127;SDS011;16942;53.196;6.592;2022-09-28T15:38:45;1.85;;;0.60;;
30127;SDS011;16942;53.196;6.592;2022-09-28T15:41:15;1.25;;;0.60;;
30127;SDS011;16942;53.196;6.592;2022-09-28T15:43:41;0.40;;;0.40;;
30127;SDS011;16942;53.196;6.592;2022-09-28T15:46:13;0.43;;;0.43;;
30127;SDS011;16942;53.196;6.592;2022-09-28T15:51:08;3.30;;;1.98;;
30127;SDS011;16942;53.196;6.592;2022-09-28T15:53:39;2.33;;;1.77;;
30127;SDS011;16942;53.196;6.592;2022-09-28T15:56:06;1.40;;;1.13;;
30127;SDS011;16942;53.196;6.592;2022-09-28T15:58:34;2.03;;;1.23;;
30127;SDS011;16942;53.196;6.592;2022-09-28T16:03:46;0.90;;;0.60;;
30127;SDS011;16942;53.196;6.592;2022-09-28T16:06:12;0.80;;;0.70;;
30127;SDS011;16942;53.196;6.592;2022-09-28T16:08:42;1.63;;;0.63;;
30127;SDS011;16942;53.196;6.592;2022-09-28T16:16:13;1.53;;;0.60;;
30127;SDS011;16942;53.196;6.592;2022-09-28T16:18:40;1.60;;;0.70;;
30127;SDS011;16942;53.196;6.592;2022-09-28T16:23:48;1.03;;;0.60;;
30127;SDS011;16942;53.196;6.592;2022-09-28T16:26:15;1.43;;;0.50;;
30127;SDS011;16942;53.196;6.592;2022-09-28T16:28:53;2.67;;;0.80;;
30127;SDS011;16942;53.196;6.592;2022-09-28T16:33:52;0.60;;;0.50;;
30127;SDS011;16942;53.196;6.592;2022-09-28T16:36:19;0.63;;;0.57;;
30127;SDS011;16942;53.196;6.592;2022-09-28T16:38:48;4.03;;;0.80;;
30127;SDS011;16942;53.196;6.592;2022-09-28T16:41:15;0.97;;;0.77;;
30127;SDS011;16942;53.196;6.592;2022-09-28T16:43:44;3.67;;;0.80;;
30127;SDS011;16942;53.196;6.592;2022-09-28T16:46:11;0.83;;;0.83;;
30127;SDS011;16942;53.196;6.592;2022-09-28T16:48:45;0.70;;;0.70;;
30127;SDS011;16942;53.196;6.592;2022-09-28T16:51:14;1.70;;;1.00;;
30127;SDS011;16942;53.196;6.592;2022-09-28T16:53:40;1.30;;;0.80;;
30127;SDS011;16942;53.196;6.592;2022-09-28T16:56:25;2.37;;;0.80;;
30127;SDS011;16942;53.196;6.592;2022-09-28T16:58:52;2.27;;;0.80;;
30127;SDS011;16942;53.196;6.592;2022-09-28T17:01:18;1.53;;;0.87;;
30127;SDS011;16942;53.196;6.592;2022-09-28T17:03:45;1.27;;;0.90;;
30127;SDS011;16942;53.196;6.592;2022-09-28T17:06:12;2.03;;;0.80;;
30127;SDS011;16942;53.196;6.592;2022-09-28T17:08:38;2.83;;;1.00;;
30127;SDS011;16942;53.196;6.592;2022-09-28T17:11:07;3.27;;;1.00;;
30127;SDS011;16942;53.196;6.592;2022-09-28T17:13:34;1.97;;;1.40;;
30127;SDS011;16942;53.196;6.592;2022-09-28T17:16:05;2.93;;;1.83;;
30127;SDS011;16942;53.196;6.592;2022-09-28T17:18:32;2.53;;;2.10;;
30127;SDS011;16942;53.196;6.592;2022-09-28T17:21:02;3.03;;;1.83;;
30127;SDS011;16942;53.196;6.592;2022-09-28T17:23:28;5.53;;;3.20;;
30127;SDS011;16942;53.196;6.592;2022-09-28T17:25:55;8.13;;;5.00;;
30127;SDS011;16942;53.196;6.592;2022-09-28T17:28:23;5.23;;;3.57;;
30127;SDS011;16942;53.196;6.592;2022-09-28T17:30:50;7.30;;;3.93;;
30127;SDS011;16942;53.196;6.592;2022-09-28T17:33:17;6.47;;;3.70;;
30127;SDS011;16942;53.196;6.592;2022-09-28T17:35:43;5.20;;;3.70;;
30127;SDS011;16942;53.196;6.592;2022-09-28T17:38:13;6.53;;;4.63;;
30127;SDS011;16942;53.196;6.592;2022-09-28T17:40:39;6.27;;;4.33;;
30127;SDS011;16942;53.196;6.592;2022-09-28T17:43:06;5.03;;;4.50;;
30127;SDS011;16942;53.196;6.592;2022-09-28T17:45:32;8.07;;;5.33;;
30127;SDS011;16942;53.196;6.592;2022-09-28T17:48:08;9.37;;;5.33;;
30127;SDS011;16942;53.196;6.592;2022-09-28T17:50:35;8.63;;;5.40;;
30127;SDS011;16942;53.196;6.592;2022-09-28T17:53:01;12.13;;;8.13;;
30127;SDS011;16942;53.196;6.592;2022-09-28T17:55:30;12.23;;;7.80;;
30127;SDS011;16942;53.196;6.592;2022-09-28T17:57:57;7.47;;;5.80;;
30127;SDS011;16942;53.196;6.592;2022-09-28T18:00:25;6.83;;;5.00;;
30127;SDS011;16942;53.196;6.592;2022-09-28T18:02:55;7.57;;;4.60;;
30127;SDS011;16942;53.196;6.592;2022-09-28T18:05:21;7.20;;;4.53;;
30127;SDS011;16942;53.196;6.592;2022-09-28T18:07:48;5.20;;;3.53;;
30127;SDS011;16942;53.196;6.592;2022-09-28T18:10:24;4.80;;;3.60;;
30127;SDS011;16942;53.196;6.592;2022-09-28T18:12:51;5.20;;;4.10;;
30127;SDS011;16942;53.196;6.592;2022-09-28T18:15:17;5.37;;;4.27;;
30127;SDS011;16942;53.196;6.592;2022-09-28T18:17:43;4.83;;;4.00;;
30127;SDS011;16942;53.196;6.592;2022-09-28T18:20:10;4.93;;;4.10;;
30127;SDS011;16942;53.196;6.592;2022-09-28T18:22:37;5.80;;;4.90;;
30127;SDS011;16942;53.196;6.592;2022-09-28T18:25:03;7.70;;;5.10;;